Time;durP1;ratioP1;P1;durP2;ratioP2;P2;SDS_P1;SDS_P2;PMS_P1;PMS_P2;Temp;Humidity;BMP_temperature;BMP_pressure;BME280_temperature;BME280_humidity;BME280_pressure;Samples;Min_cycle;Max_cycle;Signal;HPM_P1;HPM_P2
2022/02/01 00:01:25;;;;;;;10.25;5.40;;;;;;;14.99;39.69;100288.41;143721;576;48002;-76
2022/02/01 00:03:59;;;;;;;6.57;4.87;;;;;;;14.99;39.46;100261.34;143724;580;46007;-75
2022/02/01 00:06:38;;;;;;;7.72;5.00;;;;;;;15.00;39.76;100244.88;143727;611;47002;-76
2022/02/01 00:09:20;;;;;;;6.30;4.70;;;;;;;15.02;39.49;100223.03;143727;572;46014;-75
2022/02/01 00:12:14;;;;;;;6.20;5.12;;;;;;;15.00;38.76;100215.12;143721;603;47008;-76
2022/02/01 00:17:50;;;;;;;7.40;5.07;;;;;;;14.94;37.85;100235.03;143729;589;47002;-75
2022/02/01 00:34:09;;;;;;;6.30;4.90;;;;;;;15.04;38.15;100239.00;143725;567;47008;-76
2022/02/01 00:36:41;;;;;;;7.15;4.72;;;;;;;15.08;38.29;100248.28;143728;572;46006;-75
2022/02/01 00:39:12;;;;;;;8.05;5.15;;;;;;;15.13;38.46;100251.91;143729;599;46004;-75
2022/02/01 00:41:47;;;;;;;7.57;5.53;;;;;;;15.13;38.75;100240.28;143726;586;46008;-74
2022/02/01 00:44:16;;;;;;;6.68;4.53;;;;;;;15.07;39.24;100215.03;143729;626;46006;-75
2022/02/01 00:46:42;;;;;;;6.20;4.68;;;;;;;15.09;39.13;100212.06;143729;626;46009;-75
2022/02/01 00:49:09;;;;;;;9.57;4.60;;;;;;;15.16;38.99;100215.47;143729;598;46013;-75
2022/02/01 00:51:35;;;;;;;12.35;5.00;;;;;;;15.22;39.15;100203.66;143728;601;46012;-75
2022/02/01 00:54:02;;;;;;;9.18;5.75;;;;;;;15.25;39.21;100205.88;143728;566;46006;-75
2022/02/01 00:56:29;;;;;;;6.82;5.03;;;;;;;15.27;39.32;100201.03;143721;572;46927;-75
2022/02/01 00:58:56;;;;;;;6.55;4.97;;;;;;;15.28;38.66;100199.16;143729;632;46006;-74
2022/02/01 01:01:22;;;;;;;10.77;5.07;;;;;;;15.32;38.76;100194.91;143729;568;46012;-75
2022/02/01 01:03:49;;;;;;;6.25;4.70;;;;;;;15.28;38.85;100197.28;143728;567;46014;-75
2022/02/01 01:06:16;;;;;;;9.68;5.45;;;;;;;15.30;38.82;100211.38;143727;584;46008;-74
2022/02/01 01:08:42;;;;;;;6.47;4.75;;;;;;;15.31;38.33;100225.72;143721;572;47008;-76
2022/02/01 01:11:10;;;;;;;7.22;4.85;;;;;;;15.36;38.56;100197.94;143727;619;46012;-76
2022/02/01 01:44:09;;;;;;;9.95;5.93;;;;;;;15.21;40.39;100128.97;143726;669;46010;-73
2022/02/01 01:54:49;;;;;;;10.00;7.20;;;;;;;15.20;40.98;100096.75;143727;638;46007;-75
2022/02/01 01:57:16;;;;;;;10.30;6.53;;;;;;;15.23;40.97;100088.16;143727;625;47004;-74
2022/02/01 01:59:46;;;;;;;7.82;6.30;;;;;;;15.15;40.78;100076.66;143728;576;46008;-75
2022/02/01 02:02:12;;;;;;;9.65;6.05;;;;;;;15.16;40.54;100063.97;143729;576;46006;-74
2022/02/01 02:04:38;;;;;;;10.02;5.45;;;;;;;15.19;40.48;100041.03;143725;603;46018;-75
2022/02/01 02:07:05;;;;;;;8.88;5.28;;;;;;;15.21;40.60;100037.00;143718;616;47004;-75
2022/02/01 02:09:31;;;;;;;10.27;5.10;;;;;;;15.25;40.22;100048.97;143726;606;46009;-75
2022/02/01 02:12:12;;;;;;;6.85;5.18;;;;;;;15.26;40.45;100063.31;143729;615;46004;-76
2022/02/01 02:14:48;;;;;;;7.18;4.70;;;;;;;15.25;40.31;100061.69;143723;582;46010;-75
2022/02/01 02:17:15;;;;;;;8.77;5.20;;;;;;;15.26;40.53;100056.03;143727;600;46006;-75
2022/02/01 02:19:41;;;;;;;7.22;4.93;;;;;;;15.31;40.76;100049.88;143727;584;46008;-74
2022/02/01 02:22:09;;;;;;;6.15;4.85;;;;;;;15.22;41.17;100056.75;143715;632;47008;-74
2022/02/01 02:24:38;;;;;;;8.48;4.93;;;;;;;15.22;40.93;100052.16;143725;558;46012;-75
2022/02/01 02:27:06;;;;;;;7.12;4.97;;;;;;;15.25;40.09;100043.56;143728;599;46006;-75
2022/02/01 02:29:33;;;;;;;7.97;4.85;;;;;;;15.24;39.00;100036.50;143728;583;46008;-75
2022/02/01 02:32:00;;;;;;;7.43;4.75;;;;;;;15.28;38.54;100018.72;143729;568;46013;-75
2022/02/01 02:34:27;;;;;;;7.35;4.78;;;;;;;15.33;37.89;100025.28;143726;576;47006;-75
2022/02/01 02:37:03;;;;;;;6.35;4.95;;;;;;;15.22;38.20;100027.81;143729;588;46010;-75
2022/02/01 02:40:01;;;;;;;6.93;3.70;;;;;;;15.10;38.87;100018.97;143724;587;47009;-75
2022/02/01 02:45:03;;;;;;;5.97;4.28;;;;;;;15.18;38.79;100031.25;143730;610;46006;-75
2022/02/01 02:45:15;;;;;;;11.23;4.22;;;;;;;15.19;38.79;100041.03;143729;588;47010;-75
2022/02/01 02:47:41;;;;;;;7.15;4.03;;;;;;;15.23;38.96;100051.09;143731;586;46004;-75
2022/02/01 02:50:09;;;;;;;8.15;4.50;;;;;;;15.27;38.91;100035.19;143725;588;47002;-76
2022/02/01 02:52:35;;;;;;;5.15;3.62;;;;;;;15.32;38.86;100029.84;143730;619;46006;-75
2022/02/01 02:55:02;;;;;;;7.57;4.07;;;;;;;15.35;39.30;100033.97;143724;638;47010;-75
2022/02/01 02:57:28;;;;;;;7.57;4.70;;;;;;;15.39;39.00;100035.09;143729;592;46010;-75
2022/02/01 02:59:55;;;;;;;8.63;5.40;;;;;;;15.39;38.66;100032.38;143725;587;46015;-75
2022/02/01 03:02:21;;;;;;;9.38;5.12;;;;;;;15.37;38.80;100021.81;143729;574;46004;-76
2022/02/01 03:04:48;;;;;;;8.00;5.22;;;;;;;15.41;38.70;100019.44;143716;568;48920;-75
2022/02/01 03:07:14;;;;;;;8.95;5.50;;;;;;;15.48;38.62;100027.37;143727;588;46010;-75
2022/02/01 03:09:42;;;;;;;8.82;5.90;;;;;;;15.50;38.30;100031.50;143724;591;46923;-75
2022/02/01 03:12:22;;;;;;;11.50;6.22;;;;;;;15.46;38.67;100038.47;143729;631;46004;-75
2022/02/01 03:15:09;;;;;;;12.07;7.00;;;;;;;15.44;38.40;100037.88;143712;613;49004;-75
2022/02/01 03:20:19;;;;;;;8.75;5.40;;;;;;;15.49;38.09;100047.97;143727;602;46004;-75
2022/02/01 03:22:46;;;;;;;6.97;4.60;;;;;;;15.42;37.65;100050.84;143728;610;46006;-76
2022/02/01 03:25:14;;;;;;;7.62;4.43;;;;;;;15.38;38.06;100053.22;143723;585;46010;-75
2022/02/01 03:27:40;;;;;;;6.65;4.50;;;;;;;15.43;38.18;100034.38;143728;572;46021;-75
2022/02/01 03:30:08;;;;;;;6.60;4.07;;;;;;;15.49;38.20;100029.00;143717;602;48002;-75
2022/02/01 03:32:34;;;;;;;5.18;4.10;;;;;;;15.50;38.37;100031.50;143729;597;46008;-75
2022/02/01 03:35:00;;;;;;;7.87;4.53;;;;;;;15.49;38.20;100019.03;143722;577;47006;-75
2022/02/01 03:37:27;;;;;;;7.85;4.70;;;;;;;15.48;38.67;100006.56;143726;574;46004;-75
2022/02/01 03:39:53;;;;;;;6.85;3.78;;;;;;;15.49;38.44;100002.78;143721;624;48002;-75
2022/02/01 03:42:21;;;;;;;7.30;3.92;;;;;;;15.48;38.60;100013.84;143728;580;46004;-75
2022/02/01 03:44:48;;;;;;;7.05;4.25;;;;;;;15.43;39.02;100009.19;143720;612;49014;-75
2022/02/01 03:47:15;;;;;;;5.93;3.95;;;;;;;15.45;38.94;99996.22;143728;721;46005;-75
2022/02/01 03:49:42;;;;;;;7.40;4.15;;;;;;;15.47;38.79;99983.28;143728;581;46006;-76
2022/02/01 03:52:10;;;;;;;7.43;4.00;;;;;;;15.47;38.35;99977.84;143727;624;47002;-76
2022/02/01 03:54:38;;;;;;;7.22;4.55;;;;;;;15.47;38.50;99964.31;143721;575;46008;-75
2022/02/01 03:57:06;;;;;;;8.35;3.83;;;;;;;15.46;38.27;99977.03;143725;574;48002;-76
2022/02/01 03:59:33;;;;;;;6.53;4.15;;;;;;;15.41;38.49;99970.72;143724;568;46922;-74
2022/02/01 04:02:01;;;;;;;4.12;3.35;;;;;;;15.39;38.73;99965.56;143728;631;46008;-74
2022/02/01 04:04:30;;;;;;;4.95;3.10;;;;;;;15.38;38.66;99957.69;143725;614;47008;-74
2022/02/01 04:06:56;;;;;;;4.43;3.53;;;;;;;15.35;39.21;99956.31;143728;585;46004;-75
2022/02/01 04:09:24;;;;;;;6.62;4.82;;;;;;;15.36;38.84;99949.84;143725;590;46004;-75
2022/02/01 04:11:53;;;;;;;4.75;3.85;;;;;;;15.38;38.60;99963.09;143732;647;46008;-75
2022/02/01 04:14:23;;;;;;;6.00;3.50;;;;;;;15.38;38.61;99961.22;143727;629;47008;-74
2022/02/01 04:16:50;;;;;;;8.60;4.12;;;;;;;15.38;38.65;99963.09;143730;569;46009;-75
2022/02/01 04:19:16;;;;;;;4.30;3.10;;;;;;;15.32;38.93;99967.62;143727;574;46008;-74
2022/02/01 04:21:51;;;;;;;5.72;3.83;;;;;;;15.36;38.79;99957.13;143730;618;46002;-75
2022/02/01 04:24:18;;;;;;;4.87;3.10;;;;;;;15.41;38.93;99960.75;143723;575;47002;-74
2022/02/01 04:26:44;;;;;;;6.10;4.00;;;;;;;15.47;39.01;99964.31;143726;575;46925;-74
2022/02/01 04:29:11;;;;;;;9.20;4.57;;;;;;;15.54;38.89;99967.66;143725;566;46013;-75
2022/02/01 04:31:37;;;;;;;7.22;4.93;;;;;;;15.55;38.64;99971.19;143730;567;46008;-75
2022/02/01 04:34:04;;;;;;;8.77;4.72;;;;;;;15.57;38.56;99964.44;143725;596;47002;-75
2022/02/01 04:36:30;;;;;;;6.32;4.57;;;;;;;15.57;38.62;99961.75;143722;590;47008;-77
2022/02/01 04:38:57;;;;;;;6.05;4.47;;;;;;;15.58;38.90;99976.13;143726;594;46004;-76
2022/02/01 04:41:28;;;;;;;6.03;3.83;;;;;;;15.64;38.33;99975.09;143728;618;47004;-76
2022/02/01 04:43:58;;;;;;;6.62;4.00;;;;;;;15.67;38.79;99977.31;143728;601;46004;-76
2022/02/01 04:46:25;;;;;;;6.35;4.70;;;;;;;15.68;39.02;99973.53;143728;610;46004;-73
2022/02/01 04:48:52;;;;;;;5.68;3.80;;;;;;;15.71;38.30;99955.94;143729;576;46006;-75
2022/02/01 04:51:20;;;;;;;4.45;3.75;;;;;;;15.71;38.42;99962.19;143724;622;48006;-74
2022/02/01 04:53:48;;;;;;;6.05;3.90;;;;;;;15.67;38.58;99977.31;143728;607;46004;-76
2022/02/01 04:56:16;;;;;;;6.15;3.72;;;;;;;15.65;39.16;99978.63;143728;618;46004;-75
2022/02/01 04:58:43;;;;;;;6.95;3.60;;;;;;;15.70;38.75;99992.25;143729;572;46006;-75
2022/02/01 05:01:12;;;;;;;5.35;3.35;;;;;;;15.72;38.44;99990.09;143728;592;46006;-74
2022/02/01 05:03:38;;;;;;;5.90;3.85;;;;;;;15.74;38.77;99996.06;143727;611;46008;-75
2022/02/01 05:06:07;;;;;;;5.90;3.70;;;;;;;15.67;38.86;100008.97;143722;615;48002;-76
2022/02/01 05:08:33;;;;;;;5.15;3.70;;;;;;;15.71;39.05;100005.53;143723;574;48006;-76
2022/02/01 05:11:00;;;;;;;4.47;3.47;;;;;;;15.73;38.86;100003.37;143726;631;46004;-76
2022/02/01 05:16:20;;;;;;;8.43;4.10;;;;;;;15.67;39.42;100004.38;143724;702;49002;-75
2022/02/01 05:18:49;;;;;;;9.80;4.28;;;;;;;15.65;39.50;100005.69;143727;597;46006;-75
2022/02/01 05:21:25;;;;;;;5.80;3.90;;;;;;;15.56;39.99;100005.31;143724;573;47007;-76
2022/02/01 05:23:53;;;;;;;5.78;4.15;;;;;;;15.58;39.67;100004.00;143725;585;46010;-74
2022/02/01 05:26:22;;;;;;;7.10;3.90;;;;;;;15.57;39.65;100005.06;143724;633;47002;-75
2022/02/01 05:28:48;;;;;;;8.93;4.43;;;;;;;15.55;39.77;99998.25;143727;584;46006;-74
2022/02/01 05:31:15;;;;;;;6.47;4.72;;;;;;;15.53;40.34;99989.56;143729;594;46004;-74
2022/02/01 05:33:41;;;;;;;8.48;5.20;;;;;;;15.60;39.96;99982.91;143727;615;46008;-75
2022/02/01 05:36:08;;;;;;;5.68;4.10;;;;;;;15.59;39.59;99977.75;143726;667;46004;-74
2022/02/01 05:38:35;;;;;;;4.68;3.62;;;;;;;15.61;39.69;99976.41;143723;610;46923;-74
2022/02/01 05:41:02;;;;;;;11.48;4.62;;;;;;;15.64;39.32;99979.69;143727;579;46008;-74
2022/02/01 05:43:29;;;;;;;7.50;3.97;;;;;;;15.66;39.28;99980.28;143726;604;46010;-72
2022/02/01 05:45:57;;;;;;;11.77;4.45;;;;;;;15.68;39.61;99970.81;143718;630;47004;-75
2022/02/01 05:48:25;;;;;;;11.25;4.60;;;;;;;15.71;39.50;99959.50;143727;568;46004;-75
2022/02/01 05:50:54;;;;;;;5.95;3.62;;;;;;;15.69;39.36;99974.38;143726;674;47000;-74
2022/02/01 05:53:20;;;;;;;7.40;4.10;;;;;;;15.67;39.31;99979.22;143727;620;46008;-74
2022/02/01 05:55:48;;;;;;;8.18;4.05;;;;;;;15.68;39.71;99965.41;143723;594;46008;-75
2022/02/01 05:58:15;;;;;;;5.15;4.00;;;;;;;15.71;39.68;99969.50;143727;566;47004;-74
2022/02/01 06:00:42;;;;;;;6.12;4.18;;;;;;;15.72;39.96;99977.38;143729;573;46004;-75
2022/02/01 06:03:08;;;;;;;5.45;4.53;;;;;;;15.76;39.90;99980.41;143726;610;46010;-74
2022/02/01 06:05:35;;;;;;;8.45;4.10;;;;;;;15.75;39.83;99976.88;143726;579;46006;-75
2022/02/01 06:08:01;;;;;;;7.10;4.97;;;;;;;15.72;40.22;99979.25;143725;601;47000;-74
2022/02/01 06:10:28;;;;;;;5.47;4.05;;;;;;;15.76;39.92;99977.69;143729;615;46006;-74
2022/02/01 06:12:55;;;;;;;8.57;4.65;;;;;;;15.80;39.98;99972.56;143725;604;46010;-74
2022/02/01 06:15:28;;;;;;;7.87;5.25;;;;;;;15.79;40.04;99977.19;143720;660;46009;-75
2022/02/01 06:17:56;;;;;;;6.70;4.55;;;;;;;15.83;40.38;99970.22;143727;575;46006;-75
2022/02/01 06:20:23;;;;;;;7.82;4.70;;;;;;;15.84;40.37;99968.31;143727;605;47004;-74
2022/02/01 06:22:49;;;;;;;7.62;4.97;;;;;;;15.86;39.99;99955.37;143723;632;46010;-75
2022/02/01 06:25:23;;;;;;;8.25;5.43;;;;;;;15.93;40.46;99945.16;143726;575;46008;-75
2022/02/01 06:27:49;;;;;;;11.07;5.70;;;;;;;15.98;40.29;99937.09;143726;574;46006;-74
2022/02/01 06:30:16;;;;;;;6.32;5.53;;;;;;;16.03;39.96;99945.28;143723;590;47004;-75
2022/02/01 06:32:42;;;;;;;7.97;4.78;;;;;;;16.08;39.78;99949.13;143724;603;46008;-74
2022/02/01 06:35:09;;;;;;;11.52;4.03;;;;;;;16.11;39.70;99952.12;143725;574;46004;-73
2022/02/01 06:37:36;;;;;;;5.75;3.95;;;;;;;16.12;39.68;99950.25;143726;570;46006;-73
2022/02/01 06:40:03;;;;;;;6.85;4.43;;;;;;;16.12;39.50;99947.53;143728;580;46008;-73
2022/02/01 06:42:30;;;;;;;9.23;5.37;;;;;;;16.08;39.46;99954.53;143727;598;46008;-74
2022/02/01 06:44:56;;;;;;;8.20;5.05;;;;;;;16.00;39.63;99948.47;143725;575;46005;-75
2022/02/01 06:47:23;;;;;;;10.45;4.57;;;;;;;16.01;39.50;99952.03;143724;576;46004;-75
2022/02/01 06:49:49;;;;;;;9.93;3.87;;;;;;;15.97;39.92;99949.00;143720;592;47002;-73
2022/02/01 06:52:16;;;;;;;7.68;3.87;;;;;;;15.98;40.07;99964.16;143728;584;46005;-75
2022/02/01 06:54:42;;;;;;;5.90;4.32;;;;;;;15.99;40.09;99959.59;143728;594;46004;-75
2022/02/01 06:57:08;;;;;;;7.15;4.20;;;;;;;16.03;40.48;99968.84;143723;655;46006;-75
2022/02/01 06:59:35;;;;;;;10.27;4.45;;;;;;;16.01;41.07;99971.78;143728;602;46009;-75
2022/02/01 07:02:03;;;;;;;7.12;4.62;;;;;;;15.94;41.48;99971.19;143726;597;46008;-75
2022/02/01 07:04:29;;;;;;;7.75;5.35;;;;;;;16.02;41.33;99968.00;143725;585;46004;-75
2022/02/01 07:06:56;;;;;;;8.63;5.05;;;;;;;16.09;41.83;99958.88;143724;574;46006;-76
2022/02/01 07:09:23;;;;;;;8.15;5.32;;;;;;;16.14;41.45;99951.62;143728;569;46004;-76
2022/02/01 07:11:49;;;;;;;15.20;8.40;;;;;;;16.14;41.55;99956.25;143725;597;46010;-75
2022/02/01 07:14:16;;;;;;;10.80;8.15;;;;;;;16.18;41.46;99960.88;143723;643;47002;-75
2022/02/01 07:16:42;;;;;;;9.68;5.78;;;;;;;16.10;41.96;99953.19;143725;573;46006;-74
2022/02/01 07:19:09;;;;;;;10.60;7.12;;;;;;;16.11;42.37;99960.25;143727;582;46008;-74
2022/02/01 07:21:35;;;;;;;10.50;7.03;;;;;;;16.19;42.01;99965.22;143725;670;46008;-75
2022/02/01 07:24:04;;;;;;;8.13;6.12;;;;;;;16.17;42.83;99961.13;143726;586;46008;-74
2022/02/01 07:26:31;;;;;;;9.00;6.87;;;;;;;16.13;43.06;99965.44;143718;576;47006;-74
2022/02/01 07:28:58;;;;;;;11.30;6.15;;;;;;;16.07;43.71;99967.25;143728;603;46008;-69
2022/02/01 07:31:24;;;;;;;10.10;6.60;;;;;;;16.04;43.30;99957.75;143723;594;46010;-69
2022/02/01 07:33:51;;;;;;;7.62;5.32;;;;;;;16.08;43.32;99957.25;143722;598;46924;-69
2022/02/01 07:36:17;;;;;;;9.57;5.65;;;;;;;16.17;43.28;99959.25;143721;585;47010;-68
2022/02/01 07:38:44;;;;;;;7.70;5.37;;;;;;;16.25;42.73;99957.97;143727;651;46004;-69
2022/02/01 07:41:11;;;;;;;7.82;6.03;;;;;;;16.50;42.66;99954.69;143720;575;46010;-69
2022/02/01 07:43:37;;;;;;;5.97;4.90;;;;;;;16.59;40.88;99946.09;143725;601;46008;-70
2022/02/01 07:46:08;;;;;;;7.40;5.35;;;;;;;16.55;41.00;99939.56;143722;597;46006;-69
2022/02/01 07:48:34;;;;;;;7.53;5.40;;;;;;;16.63;40.87;99942.59;143728;604;46006;-70
2022/02/01 07:51:01;;;;;;;7.40;4.82;;;;;;;16.82;40.17;99925.94;143725;573;46010;-69
2022/02/01 07:53:27;;;;;;;5.45;4.60;;;;;;;16.96;40.19;99929.88;143727;606;46008;-70
2022/02/01 07:55:54;;;;;;;6.75;3.85;;;;;;;16.94;40.32;99936.62;143726;572;46006;-69
2022/02/01 07:58:20;;;;;;;5.87;3.87;;;;;;;16.86;40.33;99937.09;143729;613;46004;-68
2022/02/01 08:00:47;;;;;;;5.18;3.80;;;;;;;16.80;40.64;99942.47;143725;597;46011;-69
2022/02/01 08:03:13;;;;;;;9.02;4.78;;;;;;;16.67;40.50;99948.31;143726;594;46004;-69
2022/02/01 08:05:40;;;;;;;33.65;8.82;;;;;;;16.75;40.51;99942.44;143724;587;46006;-69
2022/02/01 08:08:07;;;;;;;7.00;4.87;;;;;;;16.91;40.67;99946.06;143728;588;46004;-66
2022/02/01 08:10:47;;;;;;;8.80;4.82;;;;;;;17.03;40.24;99958.69;143723;573;47006;-68
2022/02/01 08:19:05;;;;;;;11.70;4.20;;;;;;;16.89;41.39;99947.41;143728;634;46006;-69
2022/02/01 08:21:41;;;;;;;5.30;3.33;;;;;;;16.77;41.74;99942.16;143722;573;46009;-69
2022/02/01 08:24:08;;;;;;;5.75;3.15;;;;;;;16.97;41.29;99938.81;143727;568;46008;-69
2022/02/01 08:26:35;;;;;;;7.97;3.72;;;;;;;16.98;40.94;99935.03;143727;676;46006;-69
2022/02/01 08:29:01;;;;;;;5.87;3.25;;;;;;;16.89;41.18;99945.50;143727;585;46004;-68
2022/02/01 08:31:28;;;;;;;8.35;3.37;;;;;;;16.86;41.42;99937.88;143726;600;46006;-68
2022/02/01 08:33:55;;;;;;;6.07;3.12;;;;;;;16.90;41.65;99932.78;143725;569;46004;-69
2022/02/01 08:36:21;;;;;;;7.87;4.20;;;;;;;16.90;41.79;99944.44;143716;593;47002;-69
2022/02/01 08:38:47;;;;;;;6.55;3.50;;;;;;;16.77;42.40;99950.31;143728;595;46008;-69
2022/02/01 08:41:14;;;;;;;8.07;4.72;;;;;;;16.90;41.93;99943.62;143726;589;46010;-69
2022/02/01 08:43:40;;;;;;;5.62;3.53;;;;;;;16.88;42.06;99945.78;143722;579;46021;-69
2022/02/01 08:46:07;;;;;;;8.70;3.80;;;;;;;16.79;42.23;99956.28;143718;690;47019;-69
2022/02/01 08:48:33;;;;;;;7.82;4.10;;;;;;;16.72;42.15;99952.97;143729;639;46002;-70
2022/02/01 08:51:04;;;;;;;7.20;3.65;;;;;;;16.66;42.58;99947.53;143723;569;47009;-68
2022/02/01 08:53:43;;;;;;;7.05;4.55;;;;;;;16.85;42.58;99949.84;143724;610;46925;-68
2022/02/01 08:57:20;;;;;;;5.43;4.12;;;;;;;16.95;42.37;99957.25;143723;582;46006;-68
2022/02/01 08:58:55;;;;;;;5.22;3.62;;;;;;;17.02;42.83;99957.03;143731;584;46000;-73
2022/02/01 09:01:22;;;;;;;8.27;4.45;;;;;;;17.08;42.71;99953.28;143724;581;46921;-72
2022/02/01 09:03:48;;;;;;;9.10;4.75;;;;;;;17.16;42.92;99958.22;143726;594;46004;-72
2022/02/01 09:06:15;;;;;;;11.27;4.20;;;;;;;17.21;42.18;99952.81;143727;592;46006;-71
2022/02/01 09:08:41;;;;;;;9.18;4.90;;;;;;;17.35;42.31;99958.59;143728;606;46004;-71
2022/02/01 09:11:08;;;;;;;6.87;4.93;;;;;;;17.42;41.54;99956.47;143725;584;46010;-72
2022/02/01 09:13:34;;;;;;;6.97;4.30;;;;;;;17.46;41.77;99954.03;143726;575;46004;-72
2022/02/01 09:16:01;;;;;;;8.73;4.93;;;;;;;17.73;41.37;99945.75;143726;622;46006;-72
2022/02/01 09:18:28;;;;;;;6.55;3.72;;;;;;;17.84;40.83;99943.91;143724;673;47000;-72
2022/02/01 09:20:54;;;;;;;8.68;4.10;;;;;;;17.88;40.67;99944.19;143722;573;46010;-72
2022/02/01 09:23:21;;;;;;;9.30;5.60;;;;;;;17.88;40.86;99926.00;143728;605;46004;-72
2022/02/01 09:25:47;;;;;;;7.37;5.10;;;;;;;18.02;40.86;99929.03;143727;595;46006;-72
2022/02/01 09:28:13;;;;;;;7.57;6.20;;;;;;;18.36;39.95;99918.75;143726;575;46004;-72
2022/02/01 09:30:40;;;;;;;8.57;5.85;;;;;;;18.67;39.36;99921.50;143726;594;46011;-71
2022/02/01 09:33:06;;;;;;;9.95;5.47;;;;;;;18.87;39.06;99926.09;143722;642;47002;-73
2022/02/01 09:35:33;;;;;;;6.55;4.55;;;;;;;19.25;37.86;99913.00;143721;584;47006;-71
2022/02/01 09:37:59;;;;;;;8.68;5.22;;;;;;;19.58;37.44;99909.91;143726;597;47004;-71
2022/02/01 09:40:26;;;;;;;9.07;5.05;;;;;;;19.55;37.50;99914.00;143718;567;46010;-72
2022/02/01 09:42:52;;;;;;;13.70;4.68;;;;;;;19.48;37.41;99933.34;143724;595;46004;-73
2022/02/01 09:45:18;;;;;;;5.35;3.60;;;;;;;20.63;35.20;99926.19;143727;612;46006;-72
2022/02/01 09:47:46;;;;;;;4.78;3.72;;;;;;;22.65;31.38;99915.56;143731;586;46006;-72
2022/02/01 09:50:15;;;;;;;6.30;4.40;;;;;;;24.37;28.80;99914.59;143725;587;46025;-72
2022/02/01 09:52:42;;;;;;;7.50;4.18;;;;;;;26.20;26.19;99907.44;143720;568;47004;-73
2022/02/01 09:55:10;;;;;;;4.00;3.10;;;;;;;26.85;24.63;99896.47;143727;572;46004;-74
2022/02/01 09:57:37;;;;;;;7.78;3.60;;;;;;;26.48;25.43;99890.53;143724;590;46010;-72
2022/02/01 10:00:13;;;;;;;5.15;3.95;;;;;;;25.57;26.45;99893.91;143726;595;46011;-73
2022/02/01 10:02:42;;;;;;;6.85;4.30;;;;;;;24.02;28.73;99878.66;143724;567;46011;-71
2022/02/01 10:05:11;;;;;;;7.55;3.70;;;;;;;22.95;30.76;99889.56;143727;614;46006;-72
2022/02/01 10:07:55;;;;;;;9.38;4.25;;;;;;;22.91;30.88;99890.47;143722;578;46016;-72
2022/02/01 10:10:25;;;;;;;8.90;5.00;;;;;;;22.34;31.85;99881.28;143726;567;46010;-71
2022/02/01 10:13:18;;;;;;;7.20;3.78;;;;;;;22.34;31.67;99878.53;143723;568;47002;-72
2022/02/01 10:16:02;;;;;;;5.30;3.30;;;;;;;21.89;32.65;99884.41;143725;593;46006;-71
2022/02/01 10:18:32;;;;;;;6.97;4.53;;;;;;;22.74;31.28;99894.63;143729;592;46008;-71
2022/02/01 10:21:12;;;;;;;6.47;4.03;;;;;;;22.26;32.24;99892.91;143724;569;46010;-70
2022/02/01 10:23:44;;;;;;;6.75;4.32;;;;;;;22.16;32.21;99891.12;143723;656;47002;-71
2022/02/01 10:26:19;;;;;;;8.93;3.67;;;;;;;22.62;31.23;99895.09;143727;627;46006;-71
2022/02/01 10:29:04;;;;;;;6.60;3.42;;;;;;;24.30;28.71;99887.59;143728;592;46002;-71
2022/02/01 10:31:41;;;;;;;4.35;2.75;;;;;;;25.52;27.00;99888.53;143723;572;46018;-73
2022/02/01 10:34:41;;;;;;;4.87;3.87;;;;;;;25.56;26.92;99871.09;143726;588;47002;-72
2022/02/01 10:37:25;;;;;;;6.62;3.17;;;;;;;24.93;27.44;99870.38;143728;651;46006;-72
2022/02/01 10:39:57;;;;;;;11.50;3.90;;;;;;;26.26;26.37;99845.56;143727;580;46004;-72
2022/02/01 10:42:25;;;;;;;6.85;3.90;;;;;;;27.56;24.49;99832.75;143721;570;46008;-73
2022/02/01 10:44:57;;;;;;;8.60;4.95;;;;;;;29.71;21.71;99842.41;143727;624;46008;-72
2022/02/01 10:47:43;;;;;;;6.68;3.95;;;;;;;30.48;20.54;99844.12;143728;736;46006;-72
2022/02/01 10:50:12;;;;;;;7.30;3.55;;;;;;;29.75;21.40;99851.59;143721;594;46009;-73
2022/02/01 10:52:49;;;;;;;6.37;3.42;;;;;;;28.88;22.54;99862.69;143719;593;46011;-72
2022/02/01 10:55:17;;;;;;;7.55;3.17;;;;;;;28.69;22.33;99852.97;143725;594;46010;-73
2022/02/01 10:57:44;;;;;;;3.75;2.50;;;;;;;29.67;21.32;99856.09;143723;608;46006;-72
2022/02/01 11:00:14;;;;;;;4.25;2.58;;;;;;;30.27;20.66;99846.34;143728;856;46005;-73
2022/02/01 11:02:45;;;;;;;6.22;3.10;;;;;;;30.39;20.73;99841.53;143725;973;46010;-72
2022/02/01 11:05:14;;;;;;;5.65;2.65;;;;;;;30.62;20.48;99842.94;143723;569;47004;-71
2022/02/01 11:07:40;;;;;;;10.00;3.67;;;;;;;31.13;20.12;99845.81;143727;585;46004;-72
2022/02/01 11:10:11;;;;;;;6.15;2.83;;;;;;;30.99;19.99;99843.47;143726;986;46006;-72
2022/02/01 11:12:40;;;;;;;6.95;2.83;;;;;;;30.99;19.69;99835.16;143725;585;49004;-72
2022/02/01 11:15:24;;;;;;;5.45;3.45;;;;;;;31.16;19.73;99827.66;143727;981;46009;-73
2022/02/01 11:17:52;;;;;;;4.78;2.78;;;;;;;30.81;19.98;99817.28;143723;986;46007;-71
2022/02/01 11:20:32;;;;;;;4.28;2.90;;;;;;;29.85;21.33;99808.75;143729;645;46004;-71
2022/02/01 11:23:12;;;;;;;7.97;2.80;;;;;;;28.77;22.32;99798.78;143725;686;46012;-71
2022/02/01 11:25:47;;;;;;;5.97;3.12;;;;;;;27.63;23.79;99806.25;143721;580;49004;-72
2022/02/01 11:28:44;;;;;;;4.97;2.78;;;;;;;26.55;25.13;99804.69;143725;642;46015;-71
2022/02/01 11:31:11;;;;;;;11.20;2.90;;;;;;;25.08;27.38;99816.94;143730;718;46012;-72
2022/02/01 11:33:40;;;;;;;3.87;2.87;;;;;;;24.08;28.76;99817.06;143727;677;46012;-71
2022/02/01 11:36:08;;;;;;;7.75;2.70;;;;;;;23.44;29.79;99802.34;143722;694;48006;-71
2022/02/01 11:38:35;;;;;;;6.82;3.65;;;;;;;22.59;31.55;99799.09;143726;608;46008;-70
2022/02/01 11:41:08;;;;;;;8.43;2.65;;;;;;;22.27;32.43;99790.59;143728;645;46004;-71
2022/02/01 11:43:40;;;;;;;4.97;2.87;;;;;;;22.02;32.69;99776.22;143729;713;46011;-70
2022/02/01 11:46:08;;;;;;;11.10;5.32;;;;;;;21.70;33.29;99793.41;143726;568;46010;-71
2022/02/01 11:48:39;;;;;;;6.03;3.95;;;;;;;21.18;34.40;99796.81;143726;588;46008;-70
2022/02/01 11:51:09;;;;;;;7.22;2.80;;;;;;;20.89;34.59;99787.63;143726;908;46012;-70
2022/02/01 11:53:44;;;;;;;4.97;3.53;;;;;;;20.74;34.86;99779.53;143725;973;46012;-69
2022/02/01 11:56:18;;;;;;;5.85;3.72;;;;;;;20.67;35.20;99773.63;143727;978;46010;-71
2022/02/01 11:58:47;;;;;;;5.47;3.83;;;;;;;20.72;35.45;99781.78;143727;574;46009;-71
2022/02/01 12:01:31;;;;;;;6.68;3.15;;;;;;;20.72;35.40;99779.03;143725;709;48015;-71
2022/02/01 12:04:10;;;;;;;7.75;2.90;;;;;;;20.72;35.21;99768.94;143724;883;46012;-71
2022/02/01 12:06:44;;;;;;;5.95;2.83;;;;;;;20.73;35.92;99773.28;143724;978;47006;-71
2022/02/01 12:09:23;;;;;;;9.05;3.17;;;;;;;20.61;35.77;99770.16;143724;865;46008;-71
2022/02/01 12:12:00;;;;;;;5.68;2.90;;;;;;;20.53;35.96;99768.88;143728;900;46006;-70
2022/02/01 12:14:28;;;;;;;6.82;3.15;;;;;;;20.57;35.30;99748.06;143723;621;46013;-71
2022/02/01 12:16:59;;;;;;;7.53;3.60;;;;;;;20.71;35.34;99756.38;143726;869;46006;-71
2022/02/01 12:20:01;;;;;;;9.20;4.20;;;;;;;20.92;35.22;99745.25;143727;648;46009;-70
2022/02/01 12:22:33;;;;;;;10.93;4.50;;;;;;;20.83;35.02;99742.37;143727;569;46025;-73
2022/02/01 12:25:05;;;;;;;9.20;4.40;;;;;;;20.99;35.19;99733.97;143723;645;47924;-71
2022/02/01 12:27:46;;;;;;;7.80;3.87;;;;;;;21.14;35.23;99743.91;143726;597;46007;-71
2022/02/01 12:30:13;;;;;;;10.95;3.70;;;;;;;21.02;35.07;99749.78;143727;597;46008;-72
2022/02/01 12:32:49;;;;;;;4.07;2.40;;;;;;;20.81;34.85;99738.31;143730;588;46012;-70
2022/02/01 12:35:16;;;;;;;9.30;3.22;;;;;;;20.42;35.90;99750.97;143726;587;46010;-70
2022/02/01 12:37:42;;;;;;;7.47;3.53;;;;;;;20.22;36.34;99762.91;143725;590;46006;-69
2022/02/01 12:40:11;;;;;;;6.05;2.95;;;;;;;19.93;36.70;99750.06;143725;758;47004;-70
2022/02/01 12:42:50;;;;;;;6.53;4.12;;;;;;;19.58;36.99;99750.00;143727;627;47002;-70
2022/02/01 12:48:03;;;;;;;8.10;3.78;;;;;;;19.58;37.44;99749.22;143723;703;47006;-71
2022/02/01 12:50:30;;;;;;;7.45;3.65;;;;;;;19.60;37.04;99738.81;143729;749;46009;-70